Arago, Minnesota
Current Conditions -  °F | °C
As of 1:53 PM on Monday 22 Dec 2014 (Local Time) from KPKD Reporting Station
Unknown Precip Unknown Precip  
Wind Chill: 31°   Ceiling: 600
Heat Index: 36°   Visibility: 8mi
Dew Point: 34°   Wind: 6mph
Humidity: 93%   Direction: 120°ESE
Pressure: 29.55"   Gusts: NA
Location:  46.9966°N, 95.0029°W
Report Text: KPKD 221953Z AUTO 12005KT 8SM UP OVC006 02/01 A2955 RMK AO2 UPB43 SLP019 P0000 T00220011
Loading
Personal Weather Stations






























Interactive Weather Map New forecast layout! Learn more

10-Day Weather Forecast

Advertisements
Track Severe Weather on mobile